sensor_id;sensor_type;location;lat;lon;timestamp;temperature;humidity
52675;DHT22;38569;52.722;6.440;2022-08-19T00:01:41;15.80;99.90
52675;DHT22;38569;52.722;6.440;2022-08-19T00:04:12;15.80;99.90
52675;DHT22;38569;52.722;6.440;2022-08-19T00:06:40;15.80;99.90
52675;DHT22;38569;52.722;6.440;2022-08-19T00:09:08;15.80;99.90
52675;DHT22;38569;52.722;6.440;2022-08-19T00:11:35;15.70;99.90
52675;DHT22;38569;52.722;6.440;2022-08-19T00:14:03;15.70;99.90
52675;DHT22;38569;52.722;6.440;2022-08-19T00:16:29;15.70;99.90
52675;DHT22;38569;52.722;6.440;2022-08-19T00:18:55;15.70;99.90
52675;DHT22;38569;52.722;6.440;2022-08-19T00:21:23;15.80;99.90
52675;DHT22;38569;52.722;6.440;2022-08-19T00:23:49;15.80;99.90
52675;DHT22;38569;52.722;6.440;2022-08-19T00:26:14;15.80;99.90
52675;DHT22;38569;52.722;6.440;2022-08-19T00:28:40;15.80;99.90
52675;DHT22;38569;52.722;6.440;2022-08-19T00:31:07;15.80;99.90
52675;DHT22;38569;52.722;6.440;2022-08-19T00:33:33;15.80;99.90
52675;DHT22;38569;52.722;6.440;2022-08-19T00:36:00;15.80;99.90
52675;DHT22;38569;52.722;6.440;2022-08-19T00:38:26;15.80;99.90
52675;DHT22;38569;52.722;6.440;2022-08-19T00:40:53;15.80;99.90
52675;DHT22;38569;52.722;6.440;2022-08-19T00:43:22;15.80;99.90
52675;DHT22;38569;52.722;6.440;2022-08-19T00:45:48;15.80;99.90
52675;DHT22;38569;52.722;6.440;2022-08-19T00:48:16;15.80;99.90
52675;DHT22;38569;52.722;6.440;2022-08-19T00:50:42;15.80;99.90
52675;DHT22;38569;52.722;6.440;2022-08-19T00:53:10;15.80;99.90
52675;DHT22;38569;52.722;6.440;2022-08-19T00:55:37;15.90;99.90
52675;DHT22;38569;52.722;6.440;2022-08-19T00:58:10;15.90;99.90
52675;DHT22;38569;52.722;6.440;2022-08-19T01:00:37;15.80;99.90
52675;DHT22;38569;52.722;6.440;2022-08-19T01:03:06;15.80;99.90
52675;DHT22;38569;52.722;6.440;2022-08-19T01:05:32;15.70;99.90
52675;DHT22;38569;52.722;6.440;2022-08-19T01:08:00;15.60;99.90
52675;DHT22;38569;52.722;6.440;2022-08-19T01:10:30;15.50;99.90
52675;DHT22;38569;52.722;6.440;2022-08-19T01:12:58;15.50;99.90
52675;DHT22;38569;52.722;6.440;2022-08-19T01:15:29;15.50;99.90
52675;DHT22;38569;52.722;6.440;2022-08-19T01:17:57;15.50;99.90
52675;DHT22;38569;52.722;6.440;2022-08-19T01:20:24;15.60;99.90
52675;DHT22;38569;52.722;6.440;2022-08-19T01:22:53;15.60;99.90
52675;DHT22;38569;52.722;6.440;2022-08-19T01:25:24;15.60;99.90
52675;DHT22;38569;52.722;6.440;2022-08-19T01:27:51;15.60;99.90
52675;DHT22;38569;52.722;6.440;2022-08-19T01:30:27;15.60;99.90
52675;DHT22;38569;52.722;6.440;2022-08-19T01:32:54;15.70;99.90
52675;DHT22;38569;52.722;6.440;2022-08-19T01:35:21;15.70;99.90
52675;DHT22;38569;52.722;6.440;2022-08-19T01:37:52;15.70;99.90
52675;DHT22;38569;52.722;6.440;2022-08-19T01:40:21;15.70;99.90
52675;DHT22;38569;52.722;6.440;2022-08-19T01:42:48;15.70;99.90
52675;DHT22;38569;52.722;6.440;2022-08-19T01:45:14;15.70;99.90
52675;DHT22;38569;52.722;6.440;2022-08-19T01:47:41;15.70;99.90
52675;DHT22;38569;52.722;6.440;2022-08-19T01:50:08;15.60;99.90
52675;DHT22;38569;52.722;6.440;2022-08-19T01:52:40;15.60;99.90
52675;DHT22;38569;52.722;6.440;2022-08-19T01:55:09;15.60;99.90
52675;DHT22;38569;52.722;6.440;2022-08-19T01:57:36;15.60;99.90
52675;DHT22;38569;52.722;6.440;2022-08-19T02:00:05;15.60;99.90
52675;DHT22;38569;52.722;6.440;2022-08-19T02:02:32;15.60;99.90
52675;DHT22;38569;52.722;6.440;2022-08-19T02:04:58;15.50;99.90
52675;DHT22;38569;52.722;6.440;2022-08-19T02:07:24;15.50;99.90
52675;DHT22;38569;52.722;6.440;2022-08-19T02:09:50;15.40;99.90
52675;DHT22;38569;52.722;6.440;2022-08-19T02:12:16;15.30;99.90
52675;DHT22;38569;52.722;6.440;2022-08-19T02:14:42;15.30;99.90
52675;DHT22;38569;52.722;6.440;2022-08-19T02:17:08;15.30;99.90
52675;DHT22;38569;52.722;6.440;2022-08-19T02:19:34;15.20;99.90
52675;DHT22;38569;52.722;6.440;2022-08-19T02:22:00;15.20;99.90
52675;DHT22;38569;52.722;6.440;2022-08-19T02:24:26;15.20;99.90
52675;DHT22;38569;52.722;6.440;2022-08-19T02:26:53;15.10;99.90
52675;DHT22;38569;52.722;6.440;2022-08-19T02:29:19;15.00;99.90
52675;DHT22;38569;52.722;6.440;2022-08-19T02:31:45;14.90;99.90
52675;DHT22;38569;52.722;6.440;2022-08-19T02:34:10;14.90;99.90
52675;DHT22;38569;52.722;6.440;2022-08-19T02:36:36;14.90;99.90
52675;DHT22;38569;52.722;6.440;2022-08-19T02:39:03;14.80;99.90
52675;DHT22;38569;52.722;6.440;2022-08-19T02:41:31;14.80;99.90
52675;DHT22;38569;52.722;6.440;2022-08-19T02:43:58;14.80;99.90
52675;DHT22;38569;52.722;6.440;2022-08-19T02:46:29;14.70;99.90
52675;DHT22;38569;52.722;6.440;2022-08-19T02:48:57;14.70;99.90
52675;DHT22;38569;52.722;6.440;2022-08-19T02:51:33;14.70;99.90
52675;DHT22;38569;52.722;6.440;2022-08-19T02:53:59;14.70;99.90
52675;DHT22;38569;52.722;6.440;2022-08-19T02:56:26;14.70;99.90
52675;DHT22;38569;52.722;6.440;2022-08-19T02:58:56;14.70;99.90
52675;DHT22;38569;52.722;6.440;2022-08-19T03:01:23;14.70;99.90
52675;DHT22;38569;52.722;6.440;2022-08-19T03:03:48;14.70;99.90
52675;DHT22;38569;52.722;6.440;2022-08-19T03:06:15;14.70;99.90
52675;DHT22;38569;52.722;6.440;2022-08-19T03:08:44;14.60;99.90
52675;DHT22;38569;52.722;6.440;2022-08-19T03:11:19;14.60;99.90
52675;DHT22;38569;52.722;6.440;2022-08-19T03:13:46;14.60;99.90
52675;DHT22;38569;52.722;6.440;2022-08-19T03:16:15;14.50;99.90
52675;DHT22;38569;52.722;6.440;2022-08-19T03:18:41;14.50;99.90
52675;DHT22;38569;52.722;6.440;2022-08-19T03:21:07;14.50;99.90
52675;DHT22;38569;52.722;6.440;2022-08-19T03:23:33;14.50;99.90
52675;DHT22;38569;52.722;6.440;2022-08-19T03:26:02;14.50;99.90
52675;DHT22;38569;52.722;6.440;2022-08-19T03:28:30;14.50;99.90
52675;DHT22;38569;52.722;6.440;2022-08-19T03:31:06;14.50;99.90
52675;DHT22;38569;52.722;6.440;2022-08-19T03:33:33;14.60;99.90
52675;DHT22;38569;52.722;6.440;2022-08-19T03:36:05;14.50;99.90
52675;DHT22;38569;52.722;6.440;2022-08-19T03:38:31;14.50;99.90
52675;DHT22;38569;52.722;6.440;2022-08-19T03:40:58;14.50;99.90
52675;DHT22;38569;52.722;6.440;2022-08-19T03:43:27;14.50;99.90
52675;DHT22;38569;52.722;6.440;2022-08-19T03:46:05;14.40;99.90
52675;DHT22;38569;52.722;6.440;2022-08-19T03:48:33;14.40;99.90
52675;DHT22;38569;52.722;6.440;2022-08-19T03:50:59;14.40;99.90
52675;DHT22;38569;52.722;6.440;2022-08-19T03:53:27;14.40;99.90
52675;DHT22;38569;52.722;6.440;2022-08-19T03:55:54;14.40;99.90
52675;DHT22;38569;52.722;6.440;2022-08-19T03:58:21;14.40;99.90
52675;DHT22;38569;52.722;6.440;2022-08-19T04:00:47;14.40;99.90
52675;DHT22;38569;52.722;6.440;2022-08-19T04:03:13;14.40;99.90
52675;DHT22;38569;52.722;6.440;2022-08-19T04:05:38;14.50;99.90
52675;DHT22;38569;52.722;6.440;2022-08-19T04:08:04;14.50;99.90
52675;DHT22;38569;52.722;6.440;2022-08-19T04:10:40;14.40;99.90
52675;DHT22;38569;52.722;6.440;2022-08-19T04:13:07;14.40;99.90
52675;DHT22;38569;52.722;6.440;2022-08-19T04:15:39;14.40;99.90
52675;DHT22;38569;52.722;6.440;2022-08-19T04:18:10;14.30;99.90
52675;DHT22;38569;52.722;6.440;2022-08-19T04:20:44;14.20;99.90
52675;DHT22;38569;52.722;6.440;2022-08-19T04:23:11;14.20;99.90
52675;DHT22;38569;52.722;6.440;2022-08-19T04:25:42;14.20;99.90
52675;DHT22;38569;52.722;6.440;2022-08-19T04:28:10;14.10;99.90
52675;DHT22;38569;52.722;6.440;2022-08-19T04:30:44;14.10;99.90
52675;DHT22;38569;52.722;6.440;2022-08-19T04:33:11;14.10;99.90
52675;DHT22;38569;52.722;6.440;2022-08-19T04:35:39;14.00;99.90
52675;DHT22;38569;52.722;6.440;2022-08-19T04:38:06;14.10;99.90
52675;DHT22;38569;52.722;6.440;2022-08-19T04:40:32;14.10;99.90
52675;DHT22;38569;52.722;6.440;2022-08-19T04:43:17;14.20;99.90
52675;DHT22;38569;52.722;6.440;2022-08-19T04:45:43;14.30;99.90
52675;DHT22;38569;52.722;6.440;2022-08-19T04:48:10;14.30;99.90
52675;DHT22;38569;52.722;6.440;2022-08-19T04:50:39;14.30;99.90
52675;DHT22;38569;52.722;6.440;2022-08-19T04:53:05;14.30;99.90
52675;DHT22;38569;52.722;6.440;2022-08-19T04:55:31;14.30;99.90
52675;DHT22;38569;52.722;6.440;2022-08-19T04:57:57;14.30;99.90
52675;DHT22;38569;52.722;6.440;2022-08-19T05:00:23;14.30;99.90
52675;DHT22;38569;52.722;6.440;2022-08-19T05:02:48;14.30;99.90
52675;DHT22;38569;52.722;6.440;2022-08-19T05:05:14;14.40;99.90
52675;DHT22;38569;52.722;6.440;2022-08-19T05:07:40;14.30;99.90
52675;DHT22;38569;52.722;6.440;2022-08-19T05:10:07;14.40;99.90
52675;DHT22;38569;52.722;6.440;2022-08-19T05:12:33;14.40;99.90
52675;DHT22;38569;52.722;6.440;2022-08-19T05:14:59;14.40;99.90
52675;DHT22;38569;52.722;6.440;2022-08-19T05:17:27;14.50;99.90
52675;DHT22;38569;52.722;6.440;2022-08-19T05:19:53;14.50;99.90
52675;DHT22;38569;52.722;6.440;2022-08-19T05:22:38;14.50;99.90
52675;DHT22;38569;52.722;6.440;2022-08-19T05:25:10;14.60;99.90
52675;DHT22;38569;52.722;6.440;2022-08-19T05:27:37;14.70;99.90
52675;DHT22;38569;52.722;6.440;2022-08-19T05:30:04;14.80;99.90
52675;DHT22;38569;52.722;6.440;2022-08-19T05:32:30;14.90;99.90
52675;DHT22;38569;52.722;6.440;2022-08-19T05:34:56;15.10;99.90
52675;DHT22;38569;52.722;6.440;2022-08-19T05:37:22;15.20;99.90
52675;DHT22;38569;52.722;6.440;2022-08-19T05:39:48;15.40;99.90
52675;DHT22;38569;52.722;6.440;2022-08-19T05:42:14;15.60;99.90
52675;DHT22;38569;52.722;6.440;2022-08-19T05:44:43;15.80;99.90
52675;DHT22;38569;52.722;6.440;2022-08-19T05:47:15;15.90;99.90
52675;DHT22;38569;52.722;6.440;2022-08-19T05:49:42;16.00;99.90
52675;DHT22;38569;52.722;6.440;2022-08-19T05:52:13;16.20;99.90
52675;DHT22;38569;52.722;6.440;2022-08-19T05:54:41;16.30;99.90
52675;DHT22;38569;52.722;6.440;2022-08-19T05:57:08;16.40;99.90
52675;DHT22;38569;52.722;6.440;2022-08-19T05:59:34;16.50;99.90
52675;DHT22;38569;52.722;6.440;2022-08-19T06:02:04;16.60;99.90
52675;DHT22;38569;52.722;6.440;2022-08-19T06:04:30;16.70;99.90
52675;DHT22;38569;52.722;6.440;2022-08-19T06:06:56;16.80;99.90
52675;DHT22;38569;52.722;6.440;2022-08-19T06:09:22;16.90;99.90
52675;DHT22;38569;52.722;6.440;2022-08-19T06:11:53;17.00;99.90
52675;DHT22;38569;52.722;6.440;2022-08-19T06:14:22;17.00;99.90
52675;DHT22;38569;52.722;6.440;2022-08-19T06:16:49;17.10;99.90
52675;DHT22;38569;52.722;6.440;2022-08-19T06:19:18;17.20;99.90
52675;DHT22;38569;52.722;6.440;2022-08-19T06:21:46;17.30;99.90
52675;DHT22;38569;52.722;6.440;2022-08-19T06:24:16;17.40;99.90
52675;DHT22;38569;52.722;6.440;2022-08-19T06:26:45;17.40;99.90
52675;DHT22;38569;52.722;6.440;2022-08-19T06:29:13;17.50;99.90
52675;DHT22;38569;52.722;6.440;2022-08-19T06:31:43;17.60;99.90
52675;DHT22;38569;52.722;6.440;2022-08-19T06:34:09;17.70;99.90
52675;DHT22;38569;52.722;6.440;2022-08-19T06:36:38;17.80;99.90
52675;DHT22;38569;52.722;6.440;2022-08-19T06:39:06;17.90;99.90
52675;DHT22;38569;52.722;6.440;2022-08-19T06:41:36;18.00;99.90
52675;DHT22;38569;52.722;6.440;2022-08-19T06:44:02;18.00;99.90
52675;DHT22;38569;52.722;6.440;2022-08-19T06:46:28;18.10;99.90
52675;DHT22;38569;52.722;6.440;2022-08-19T06:48:54;18.20;99.90
52675;DHT22;38569;52.722;6.440;2022-08-19T06:51:21;18.30;99.90
52675;DHT22;38569;52.722;6.440;2022-08-19T06:53:49;18.40;99.90
52675;DHT22;38569;52.722;6.440;2022-08-19T06:56:19;18.40;99.90
52675;DHT22;38569;52.722;6.440;2022-08-19T06:58:47;18.60;99.90
52675;DHT22;38569;52.722;6.440;2022-08-19T07:01:16;18.70;99.90
52675;DHT22;38569;52.722;6.440;2022-08-19T07:03:41;18.70;99.90
52675;DHT22;38569;52.722;6.440;2022-08-19T07:06:10;18.90;99.90
52675;DHT22;38569;52.722;6.440;2022-08-19T07:08:37;19.00;99.90
52675;DHT22;38569;52.722;6.440;2022-08-19T07:11:08;19.10;99.90
52675;DHT22;38569;52.722;6.440;2022-08-19T07:13:36;19.20;99.90
52675;DHT22;38569;52.722;6.440;2022-08-19T07:16:07;19.20;99.90
52675;DHT22;38569;52.722;6.440;2022-08-19T07:18:33;19.40;99.90
52675;DHT22;38569;52.722;6.440;2022-08-19T07:21:12;19.50;99.90
52675;DHT22;38569;52.722;6.440;2022-08-19T07:23:38;19.60;99.90
52675;DHT22;38569;52.722;6.440;2022-08-19T07:26:10;19.60;99.90
52675;DHT22;38569;52.722;6.440;2022-08-19T07:28:36;19.80;99.90
52675;DHT22;38569;52.722;6.440;2022-08-19T07:31:06;19.90;99.90
52675;DHT22;38569;52.722;6.440;2022-08-19T07:33:33;20.00;99.90
52675;DHT22;38569;52.722;6.440;2022-08-19T07:35:59;20.20;99.90
52675;DHT22;38569;52.722;6.440;2022-08-19T07:38:25;20.20;99.90
52675;DHT22;38569;52.722;6.440;2022-08-19T07:40:51;20.30;99.90
52675;DHT22;38569;52.722;6.440;2022-08-19T07:43:17;20.40;99.90
52675;DHT22;38569;52.722;6.440;2022-08-19T07:45:52;20.50;99.90
52675;DHT22;38569;52.722;6.440;2022-08-19T07:48:22;20.60;99.90
52675;DHT22;38569;52.722;6.440;2022-08-19T07:50:56;20.70;99.90
52675;DHT22;38569;52.722;6.440;2022-08-19T07:53:23;20.80;99.90
52675;DHT22;38569;52.722;6.440;2022-08-19T07:55:50;20.90;99.90
52675;DHT22;38569;52.722;6.440;2022-08-19T07:58:20;21.00;99.90
52675;DHT22;38569;52.722;6.440;2022-08-19T08:00:48;21.10;99.90
52675;DHT22;38569;52.722;6.440;2022-08-19T08:03:17;21.30;99.90
52675;DHT22;38569;52.722;6.440;2022-08-19T08:05:42;21.40;99.90
52675;DHT22;38569;52.722;6.440;2022-08-19T08:08:27;21.50;99.90
52675;DHT22;38569;52.722;6.440;2022-08-19T08:11:11;21.60;99.90
52675;DHT22;38569;52.722;6.440;2022-08-19T08:13:40;21.70;99.90
52675;DHT22;38569;52.722;6.440;2022-08-19T08:16:12;21.90;99.90
52675;DHT22;38569;52.722;6.440;2022-08-19T08:18:38;22.10;99.90
52675;DHT22;38569;52.722;6.440;2022-08-19T08:21:07;22.30;99.90
52675;DHT22;38569;52.722;6.440;2022-08-19T08:23:33;23.00;99.90
52675;DHT22;38569;52.722;6.440;2022-08-19T08:25:59;24.10;99.90
52675;DHT22;38569;52.722;6.440;2022-08-19T08:28:26;25.10;99.90
52675;DHT22;38569;52.722;6.440;2022-08-19T08:30:53;26.10;99.90
52675;DHT22;38569;52.722;6.440;2022-08-19T08:33:21;26.90;99.90
52675;DHT22;38569;52.722;6.440;2022-08-19T08:35:47;27.60;99.90
52675;DHT22;38569;52.722;6.440;2022-08-19T08:38:14;27.90;99.90
52675;DHT22;38569;52.722;6.440;2022-08-19T08:40:53;28.30;99.90
52675;DHT22;38569;52.722;6.440;2022-08-19T08:43:32;28.80;99.90
52675;DHT22;38569;52.722;6.440;2022-08-19T08:49:19;29.70;99.90
52675;DHT22;38569;52.722;6.440;2022-08-19T08:51:56;30.20;95.30
52675;DHT22;38569;52.722;6.440;2022-08-19T08:54:36;30.60;95.70
52675;DHT22;38569;52.722;6.440;2022-08-19T08:57:09;30.90;95.30
52675;DHT22;38569;52.722;6.440;2022-08-19T08:59:38;31.10;92.70
52675;DHT22;38569;52.722;6.440;2022-08-19T09:02:07;31.30;92.20
52675;DHT22;38569;52.722;6.440;2022-08-19T09:04:34;31.70;90.00
52675;DHT22;38569;52.722;6.440;2022-08-19T09:10:09;31.60;82.10
52675;DHT22;38569;52.722;6.440;2022-08-19T09:12:47;31.70;82.60
52675;DHT22;38569;52.722;6.440;2022-08-19T09:15:24;31.90;80.60
52675;DHT22;38569;52.722;6.440;2022-08-19T09:17:53;32.20;77.70
52675;DHT22;38569;52.722;6.440;2022-08-19T09:20:23;32.40;78.10
52675;DHT22;38569;52.722;6.440;2022-08-19T09:22:49;32.70;76.10
52675;DHT22;38569;52.722;6.440;2022-08-19T09:25:22;33.00;76.70
52675;DHT22;38569;52.722;6.440;2022-08-19T09:27:48;33.50;73.40
52675;DHT22;38569;52.722;6.440;2022-08-19T09:30:23;34.30;69.90
52675;DHT22;38569;52.722;6.440;2022-08-19T09:32:50;34.60;69.40
52675;DHT22;38569;52.722;6.440;2022-08-19T09:35:19;34.60;67.90
52675;DHT22;38569;52.722;6.440;2022-08-19T09:37:48;34.60;65.50
52675;DHT22;38569;52.722;6.440;2022-08-19T09:40:17;34.50;64.60
52675;DHT22;38569;52.722;6.440;2022-08-19T09:42:44;34.40;63.70
52675;DHT22;38569;52.722;6.440;2022-08-19T09:45:13;34.30;63.20
52675;DHT22;38569;52.722;6.440;2022-08-19T09:47:39;34.30;62.80
52675;DHT22;38569;52.722;6.440;2022-08-19T09:50:06;34.00;63.20
52675;DHT22;38569;52.722;6.440;2022-08-19T09:52:33;33.90;62.40
52675;DHT22;38569;52.722;6.440;2022-08-19T09:55:00;33.80;62.80
52675;DHT22;38569;52.722;6.440;2022-08-19T09:57:25;33.90;62.70
52675;DHT22;38569;52.722;6.440;2022-08-19T09:59:51;33.90;62.50
52675;DHT22;38569;52.722;6.440;2022-08-19T10:02:17;33.80;62.40
52675;DHT22;38569;52.722;6.440;2022-08-19T10:04:43;33.80;62.80
52675;DHT22;38569;52.722;6.440;2022-08-19T10:07:29;33.90;62.60
52675;DHT22;38569;52.722;6.440;2022-08-19T10:09:55;34.00;61.90
52675;DHT22;38569;52.722;6.440;2022-08-19T10:12:22;34.00;61.50
52675;DHT22;38569;52.722;6.440;2022-08-19T10:14:48;34.30;61.40
52675;DHT22;38569;52.722;6.440;2022-08-19T10:17:14;34.30;61.90
52675;DHT22;38569;52.722;6.440;2022-08-19T10:19:40;34.40;61.90
52675;DHT22;38569;52.722;6.440;2022-08-19T10:22:06;34.90;62.40
52675;DHT22;38569;52.722;6.440;2022-08-19T10:24:33;35.30;61.10
52675;DHT22;38569;52.722;6.440;2022-08-19T10:27:01;35.20;60.10
52675;DHT22;38569;52.722;6.440;2022-08-19T10:29:30;35.40;59.60
52675;DHT22;38569;52.722;6.440;2022-08-19T10:31:57;35.40;59.60
52675;DHT22;38569;52.722;6.440;2022-08-19T10:34:24;35.30;58.80
52675;DHT22;38569;52.722;6.440;2022-08-19T10:36:50;35.10;58.80
52675;DHT22;38569;52.722;6.440;2022-08-19T10:39:16;34.50;59.00
52675;DHT22;38569;52.722;6.440;2022-08-19T10:41:42;34.50;59.50
52675;DHT22;38569;52.722;6.440;2022-08-19T10:44:11;34.50;57.90
52675;DHT22;38569;52.722;6.440;2022-08-19T10:46:40;34.40;58.60
52675;DHT22;38569;52.722;6.440;2022-08-19T10:49:09;34.30;59.60
52675;DHT22;38569;52.722;6.440;2022-08-19T10:51:35;34.40;59.90
52675;DHT22;38569;52.722;6.440;2022-08-19T10:54:20;34.70;60.20
52675;DHT22;38569;52.722;6.440;2022-08-19T10:56:46;34.80;60.00
52675;DHT22;38569;52.722;6.440;2022-08-19T10:59:28;34.60;60.20
52675;DHT22;38569;52.722;6.440;2022-08-19T11:01:59;34.30;60.50
52675;DHT22;38569;52.722;6.440;2022-08-19T11:04:25;34.30;60.80
52675;DHT22;38569;52.722;6.440;2022-08-19T11:06:51;34.60;60.90
52675;DHT22;38569;52.722;6.440;2022-08-19T11:09:23;34.80;60.40
52675;DHT22;38569;52.722;6.440;2022-08-19T11:11:50;34.90;58.60
52675;DHT22;38569;52.722;6.440;2022-08-19T11:14:18;35.00;59.20
52675;DHT22;38569;52.722;6.440;2022-08-19T11:16:47;35.30;59.70
52675;DHT22;38569;52.722;6.440;2022-08-19T11:19:13;35.50;59.50
52675;DHT22;38569;52.722;6.440;2022-08-19T11:21:43;35.40;58.40
52675;DHT22;38569;52.722;6.440;2022-08-19T11:24:28;35.00;59.40
52675;DHT22;38569;52.722;6.440;2022-08-19T11:27:00;34.90;58.00
52675;DHT22;38569;52.722;6.440;2022-08-19T11:29:28;34.60;58.40
52675;DHT22;38569;52.722;6.440;2022-08-19T11:31:54;34.30;58.00
52675;DHT22;38569;52.722;6.440;2022-08-19T11:34:23;34.10;58.60
52675;DHT22;38569;52.722;6.440;2022-08-19T11:36:50;34.10;59.00
52675;DHT22;38569;52.722;6.440;2022-08-19T11:39:21;34.00;59.00
52675;DHT22;38569;52.722;6.440;2022-08-19T11:41:47;33.80;59.80
52675;DHT22;38569;52.722;6.440;2022-08-19T11:44:15;34.10;59.80
52675;DHT22;38569;52.722;6.440;2022-08-19T11:46:42;34.50;59.50
52675;DHT22;38569;52.722;6.440;2022-08-19T11:49:13;34.70;58.70
52675;DHT22;38569;52.722;6.440;2022-08-19T11:51:40;34.60;57.00
52675;DHT22;38569;52.722;6.440;2022-08-19T11:54:07;34.10;57.10
52675;DHT22;38569;52.722;6.440;2022-08-19T11:56:33;34.10;58.30
52675;DHT22;38569;52.722;6.440;2022-08-19T11:59:00;34.40;57.70
52675;DHT22;38569;52.722;6.440;2022-08-19T12:01:26;34.40;57.50
52675;DHT22;38569;52.722;6.440;2022-08-19T12:03:54;34.60;57.50
52675;DHT22;38569;52.722;6.440;2022-08-19T12:06:23;34.70;56.80
52675;DHT22;38569;52.722;6.440;2022-08-19T12:08:58;34.80;55.80
52675;DHT22;38569;52.722;6.440;2022-08-19T12:11:24;34.90;55.30
52675;DHT22;38569;52.722;6.440;2022-08-19T12:13:50;34.90;55.10
52675;DHT22;38569;52.722;6.440;2022-08-19T12:16:25;34.60;55.50
52675;DHT22;38569;52.722;6.440;2022-08-19T12:18:52;34.20;54.60
52675;DHT22;38569;52.722;6.440;2022-08-19T12:21:21;34.10;56.20
52675;DHT22;38569;52.722;6.440;2022-08-19T12:23:48;34.10;55.30
52675;DHT22;38569;52.722;6.440;2022-08-19T12:26:15;33.70;56.30
52675;DHT22;38569;52.722;6.440;2022-08-19T12:28:41;33.70;56.70
52675;DHT22;38569;52.722;6.440;2022-08-19T12:31:07;34.00;55.80
52675;DHT22;38569;52.722;6.440;2022-08-19T12:33:33;34.00;55.30
52675;DHT22;38569;52.722;6.440;2022-08-19T12:36:04;34.10;55.40
52675;DHT22;38569;52.722;6.440;2022-08-19T12:38:31;34.00;55.10
52675;DHT22;38569;52.722;6.440;2022-08-19T12:40:58;33.60;55.50
52675;DHT22;38569;52.722;6.440;2022-08-19T12:43:24;33.30;56.20
52675;DHT22;38569;52.722;6.440;2022-08-19T12:45:49;33.20;57.60
52675;DHT22;38569;52.722;6.440;2022-08-19T12:48:16;33.30;57.40
52675;DHT22;38569;52.722;6.440;2022-08-19T12:50:44;33.70;57.30
52675;DHT22;38569;52.722;6.440;2022-08-19T12:53:13;33.70;57.20
52675;DHT22;38569;52.722;6.440;2022-08-19T12:55:39;33.50;55.80
52675;DHT22;38569;52.722;6.440;2022-08-19T12:58:05;33.20;56.20
52675;DHT22;38569;52.722;6.440;2022-08-19T13:00:31;33.00;57.40
52675;DHT22;38569;52.722;6.440;2022-08-19T13:02:58;33.00;58.10
52675;DHT22;38569;52.722;6.440;2022-08-19T13:05:27;33.00;58.80
52675;DHT22;38569;52.722;6.440;2022-08-19T13:07:56;33.00;58.90
52675;DHT22;38569;52.722;6.440;2022-08-19T13:10:23;32.60;59.50
52675;DHT22;38569;52.722;6.440;2022-08-19T13:12:51;32.60;60.30
52675;DHT22;38569;52.722;6.440;2022-08-19T13:15:19;32.70;59.70
52675;DHT22;38569;52.722;6.440;2022-08-19T13:17:47;32.70;60.10
52675;DHT22;38569;52.722;6.440;2022-08-19T13:20:19;32.80;58.30
52675;DHT22;38569;52.722;6.440;2022-08-19T13:22:46;32.70;57.30
52675;DHT22;38569;52.722;6.440;2022-08-19T13:25:14;32.40;57.60
52675;DHT22;38569;52.722;6.440;2022-08-19T13:27:43;32.20;59.10
52675;DHT22;38569;52.722;6.440;2022-08-19T13:30:11;31.80;59.50
52675;DHT22;38569;52.722;6.440;2022-08-19T13:32:56;31.50;60.30
52675;DHT22;38569;52.722;6.440;2022-08-19T13:35:49;31.50;61.20
52675;DHT22;38569;52.722;6.440;2022-08-19T13:38:20;31.60;60.70
52675;DHT22;38569;52.722;6.440;2022-08-19T13:40:47;32.00;59.70
52675;DHT22;38569;52.722;6.440;2022-08-19T13:43:13;31.80;58.90
52675;DHT22;38569;52.722;6.440;2022-08-19T13:45:39;31.60;59.00
52675;DHT22;38569;52.722;6.440;2022-08-19T13:48:06;31.50;59.50
52675;DHT22;38569;52.722;6.440;2022-08-19T13:50:37;31.70;59.90
52675;DHT22;38569;52.722;6.440;2022-08-19T13:53:03;31.80;58.40
52675;DHT22;38569;52.722;6.440;2022-08-19T13:55:30;31.90;58.50
52675;DHT22;38569;52.722;6.440;2022-08-19T13:57:58;31.90;58.90
52675;DHT22;38569;52.722;6.440;2022-08-19T14:00:26;32.20;59.10
52675;DHT22;38569;52.722;6.440;2022-08-19T14:02:54;32.20;59.40
52675;DHT22;38569;52.722;6.440;2022-08-19T14:05:22;32.20;59.40
52675;DHT22;38569;52.722;6.440;2022-08-19T14:07:48;32.40;59.30
52675;DHT22;38569;52.722;6.440;2022-08-19T14:10:14;32.40;60.00
52675;DHT22;38569;52.722;6.440;2022-08-19T14:12:41;32.40;60.40
52675;DHT22;38569;52.722;6.440;2022-08-19T14:15:08;32.20;60.60
52675;DHT22;38569;52.722;6.440;2022-08-19T14:17:34;32.50;60.40
52675;DHT22;38569;52.722;6.440;2022-08-19T14:20:05;32.70;59.50
52675;DHT22;38569;52.722;6.440;2022-08-19T14:22:38;32.70;60.70
52675;DHT22;38569;52.722;6.440;2022-08-19T14:25:06;32.30;61.80
52675;DHT22;38569;52.722;6.440;2022-08-19T14:27:36;31.80;63.10
52675;DHT22;38569;52.722;6.440;2022-08-19T14:30:04;31.60;63.30
52675;DHT22;38569;52.722;6.440;2022-08-19T14:32:29;31.30;63.80
52675;DHT22;38569;52.722;6.440;2022-08-19T14:34:55;30.90;63.90
52675;DHT22;38569;52.722;6.440;2022-08-19T14:37:21;31.10;64.20
52675;DHT22;38569;52.722;6.440;2022-08-19T14:39:49;31.20;64.70
52675;DHT22;38569;52.722;6.440;2022-08-19T14:42:15;31.10;64.50
52675;DHT22;38569;52.722;6.440;2022-08-19T14:44:41;31.00;64.70
52675;DHT22;38569;52.722;6.440;2022-08-19T14:47:09;30.80;65.30
52675;DHT22;38569;52.722;6.440;2022-08-19T14:49:35;30.60;65.60
52675;DHT22;38569;52.722;6.440;2022-08-19T14:52:02;30.50;66.00
52675;DHT22;38569;52.722;6.440;2022-08-19T14:54:28;29.90;66.90
52675;DHT22;38569;52.722;6.440;2022-08-19T14:56:54;29.60;68.00
52675;DHT22;38569;52.722;6.440;2022-08-19T14:59:20;29.60;68.60
52675;DHT22;38569;52.722;6.440;2022-08-19T15:01:46;29.70;69.20
52675;DHT22;38569;52.722;6.440;2022-08-19T15:04:12;29.80;69.50
52675;DHT22;38569;52.722;6.440;2022-08-19T15:06:37;29.90;70.20
52675;DHT22;38569;52.722;6.440;2022-08-19T15:09:03;30.00;70.50
52675;DHT22;38569;52.722;6.440;2022-08-19T15:11:29;30.00;70.80
52675;DHT22;38569;52.722;6.440;2022-08-19T15:13:59;29.80;71.40
52675;DHT22;38569;52.722;6.440;2022-08-19T15:16:25;29.40;73.10
52675;DHT22;38569;52.722;6.440;2022-08-19T15:18:54;29.10;75.50
52675;DHT22;38569;52.722;6.440;2022-08-19T15:21:21;29.00;77.80
52675;DHT22;38569;52.722;6.440;2022-08-19T15:23:48;28.90;80.90
52675;DHT22;38569;52.722;6.440;2022-08-19T15:26:16;28.60;84.80
52675;DHT22;38569;52.722;6.440;2022-08-19T15:28:42;28.40;88.30
52675;DHT22;38569;52.722;6.440;2022-08-19T15:31:08;28.20;90.30
52675;DHT22;38569;52.722;6.440;2022-08-19T15:33:35;28.00;91.50
52675;DHT22;38569;52.722;6.440;2022-08-19T15:36:04;27.90;93.00
52675;DHT22;38569;52.722;6.440;2022-08-19T15:38:31;27.70;94.60
52675;DHT22;38569;52.722;6.440;2022-08-19T15:41:00;27.50;95.40
52675;DHT22;38569;52.722;6.440;2022-08-19T15:43:46;27.40;96.20